sensor_id;sensor_type;location;lat;lon;timestamp;P1;P2;P0
80413;PMS5003;69758;52.580;13.068;2023-10-19T00:00:40;21;21;
80413;PMS5003;69758;52.580;13.068;2023-10-19T00:03:05;35;32;
80413;PMS5003;69758;52.580;13.068;2023-10-19T00:05:31;31;30;
80413;PMS5003;69758;52.580;13.068;2023-10-19T00:07:56;24;23;
80413;PMS5003;69758;52.580;13.068;2023-10-19T00:10:21;33;32;
80413;PMS5003;69758;52.580;13.068;2023-10-19T00:12:47;29;28;
80413;PMS5003;69758;52.580;13.068;2023-10-19T00:15:12;32;29;
80413;PMS5003;69758;52.580;13.068;2023-10-19T00:17:38;34;32;
80413;PMS5003;69758;52.580;13.068;2023-10-19T00:20:03;31;31;
80413;PMS5003;69758;52.580;13.068;2023-10-19T00:22:28;27;27;
80413;PMS5003;69758;52.580;13.068;2023-10-19T00:24:54;26;25;
80413;PMS5003;69758;52.580;13.068;2023-10-19T00:27:19;31;29;
80413;PMS5003;69758;52.580;13.068;2023-10-19T00:29:44;29;28;
80413;PMS5003;69758;52.580;13.068;2023-10-19T00:32:10;32;29;
80413;PMS5003;69758;52.580;13.068;2023-10-19T00:34:35;31;30;
80413;PMS5003;69758;52.580;13.068;2023-10-19T00:37:01;25;24;
80413;PMS5003;69758;52.580;13.068;2023-10-19T00:39:26;29;27;
80413;PMS5003;69758;52.580;13.068;2023-10-19T00:41:52;30;29;
80413;PMS5003;69758;52.580;13.068;2023-10-19T00:44:17;34;31;
80413;PMS5003;69758;52.580;13.068;2023-10-19T00:46:43;28;27;
80413;PMS5003;69758;52.580;13.068;2023-10-19T00:49:08;24;23;
80413;PMS5003;69758;52.580;13.068;2023-10-19T00:51:36;26;24;
80413;PMS5003;69758;52.580;13.068;2023-10-19T00:54:02;29;28;
80413;PMS5003;69758;52.580;13.068;2023-10-19T00:56:24;25;24;
80413;PMS5003;69758;52.580;13.068;2023-10-19T00:58:50;28;25;
80413;PMS5003;69758;52.580;13.068;2023-10-19T01:01:15;32;28;
80413;PMS5003;69758;52.580;13.068;2023-10-19T01:03:41;29;29;
80413;PMS5003;69758;52.580;13.068;2023-10-19T01:06:07;27;27;
80413;PMS5003;69758;52.580;13.068;2023-10-19T01:08:37;24;23;
80413;PMS5003;69758;52.580;13.068;2023-10-19T01:10:57;32;29;
80413;PMS5003;69758;52.580;13.068;2023-10-19T01:13:22;39;34;
80413;PMS5003;69758;52.580;13.068;2023-10-19T01:15:47;33;32;
80413;PMS5003;69758;52.580;13.068;2023-10-19T01:18:13;31;29;
80413;PMS5003;69758;52.580;13.068;2023-10-19T01:20:38;31;29;
80413;PMS5003;69758;52.580;13.068;2023-10-19T01:23:04;30;27;
80413;PMS5003;69758;52.580;13.068;2023-10-19T01:25:29;30;28;
80413;PMS5003;69758;52.580;13.068;2023-10-19T01:27:54;39;36;
80413;PMS5003;69758;52.580;13.068;2023-10-19T01:30:20;28;27;
80413;PMS5003;69758;52.580;13.068;2023-10-19T01:32:45;38;34;
80413;PMS5003;69758;52.580;13.068;2023-10-19T01:35:10;33;30;
80413;PMS5003;69758;52.580;13.068;2023-10-19T01:37:36;33;29;
80413;PMS5003;69758;52.580;13.068;2023-10-19T01:40:02;36;35;
80413;PMS5003;69758;52.580;13.068;2023-10-19T01:42:27;35;32;
80413;PMS5003;69758;52.580;13.068;2023-10-19T01:44:53;30;28;
80413;PMS5003;69758;52.580;13.068;2023-10-19T01:47:18;33;31;
80413;PMS5003;69758;52.580;13.068;2023-10-19T01:49:44;32;29;
80413;PMS5003;69758;52.580;13.068;2023-10-19T01:52:09;35;31;
80413;PMS5003;69758;52.580;13.068;2023-10-19T01:54:35;42;35;
80413;PMS5003;69758;52.580;13.068;2023-10-19T01:57:01;37;36;
80413;PMS5003;69758;52.580;13.068;2023-10-19T01:59:27;27;26;
80413;PMS5003;69758;52.580;13.068;2023-10-19T02:01:52;30;28;
80413;PMS5003;69758;52.580;13.068;2023-10-19T02:04:17;27;26;
80413;PMS5003;69758;52.580;13.068;2023-10-19T02:06:43;32;32;
80413;PMS5003;69758;52.580;13.068;2023-10-19T02:09:09;27;25;
80413;PMS5003;69758;52.580;13.068;2023-10-19T02:11:33;30;29;
80413;PMS5003;69758;52.580;13.068;2023-10-19T02:13:58;29;27;
80413;PMS5003;69758;52.580;13.068;2023-10-19T02:16:24;41;38;
80413;PMS5003;69758;52.580;13.068;2023-10-19T02:18:50;30;30;
80413;PMS5003;69758;52.580;13.068;2023-10-19T02:21:15;32;30;
80413;PMS5003;69758;52.580;13.068;2023-10-19T02:23:40;36;32;
80413;PMS5003;69758;52.580;13.068;2023-10-19T02:26:06;30;28;
80413;PMS5003;69758;52.580;13.068;2023-10-19T02:28:31;30;27;
80413;PMS5003;69758;52.580;13.068;2023-10-19T02:30:57;43;41;
80413;PMS5003;69758;52.580;13.068;2023-10-19T02:33:22;37;32;
80413;PMS5003;69758;52.580;13.068;2023-10-19T02:35:47;30;28;
80413;PMS5003;69758;52.580;13.068;2023-10-19T02:38:12;29;27;
80413;PMS5003;69758;52.580;13.068;2023-10-19T02:40:38;37;33;
80413;PMS5003;69758;52.580;13.068;2023-10-19T02:43:03;26;26;
80413;PMS5003;69758;52.580;13.068;2023-10-19T02:45:29;33;33;
80413;PMS5003;69758;52.580;13.068;2023-10-19T02:47:54;29;26;
80413;PMS5003;69758;52.580;13.068;2023-10-19T02:50:19;37;34;
80413;PMS5003;69758;52.580;13.068;2023-10-19T02:52:44;28;28;
80413;PMS5003;69758;52.580;13.068;2023-10-19T02:55:10;30;29;
80413;PMS5003;69758;52.580;13.068;2023-10-19T02:57:36;31;29;
80413;PMS5003;69758;52.580;13.068;2023-10-19T03:00:01;22;21;
80413;PMS5003;69758;52.580;13.068;2023-10-19T03:02:26;28;26;
80413;PMS5003;69758;52.580;13.068;2023-10-19T03:04:52;39;34;
80413;PMS5003;69758;52.580;13.068;2023-10-19T03:07:17;25;24;
80413;PMS5003;69758;52.580;13.068;2023-10-19T03:09:42;34;31;
80413;PMS5003;69758;52.580;13.068;2023-10-19T03:12:08;36;32;
80413;PMS5003;69758;52.580;13.068;2023-10-19T03:14:34;29;28;
80413;PMS5003;69758;52.580;13.068;2023-10-19T03:16:59;32;31;
80413;PMS5003;69758;52.580;13.068;2023-10-19T03:19:25;32;28;
80413;PMS5003;69758;52.580;13.068;2023-10-19T03:21:50;36;33;
80413;PMS5003;69758;52.580;13.068;2023-10-19T03:24:16;31;28;
80413;PMS5003;69758;52.580;13.068;2023-10-19T03:26:41;32;31;
80413;PMS5003;69758;52.580;13.068;2023-10-19T03:29:06;40;38;
80413;PMS5003;69758;52.580;13.068;2023-10-19T03:31:32;26;26;
80413;PMS5003;69758;52.580;13.068;2023-10-19T03:33:57;37;33;
80413;PMS5003;69758;52.580;13.068;2023-10-19T03:36:23;25;24;
80413;PMS5003;69758;52.580;13.068;2023-10-19T03:38:49;30;26;
80413;PMS5003;69758;52.580;13.068;2023-10-19T03:41:14;31;29;
80413;PMS5003;69758;52.580;13.068;2023-10-19T03:43:39;41;35;
80413;PMS5003;69758;52.580;13.068;2023-10-19T03:46:05;31;28;
80413;PMS5003;69758;52.580;13.068;2023-10-19T03:48:30;34;33;
80413;PMS5003;69758;52.580;13.068;2023-10-19T03:50:55;34;34;
80413;PMS5003;69758;52.580;13.068;2023-10-19T03:53:21;35;34;
80413;PMS5003;69758;52.580;13.068;2023-10-19T03:55:47;36;32;
80413;PMS5003;69758;52.580;13.068;2023-10-19T03:58:11;37;34;
80413;PMS5003;69758;52.580;13.068;2023-10-19T04:00:37;35;32;
80413;PMS5003;69758;52.580;13.068;2023-10-19T04:03:03;29;29;
80413;PMS5003;69758;52.580;13.068;2023-10-19T04:05:28;30;28;
80413;PMS5003;69758;52.580;13.068;2023-10-19T04:07:54;34;33;
80413;PMS5003;69758;52.580;13.068;2023-10-19T04:10:19;31;30;
80413;PMS5003;69758;52.580;13.068;2023-10-19T04:12:44;31;30;
80413;PMS5003;69758;52.580;13.068;2023-10-19T04:15:10;41;36;
80413;PMS5003;69758;52.580;13.068;2023-10-19T04:17:36;30;30;
80413;PMS5003;69758;52.580;13.068;2023-10-19T04:20:01;33;31;
80413;PMS5003;69758;52.580;13.068;2023-10-19T04:22:26;36;35;
80413;PMS5003;69758;52.580;13.068;2023-10-19T04:24:52;35;33;
80413;PMS5003;69758;52.580;13.068;2023-10-19T04:27:17;32;30;
80413;PMS5003;69758;52.580;13.068;2023-10-19T04:29:43;39;37;
80413;PMS5003;69758;52.580;13.068;2023-10-19T04:32:07;40;36;
80413;PMS5003;69758;52.580;13.068;2023-10-19T04:34:33;38;38;
80413;PMS5003;69758;52.580;13.068;2023-10-19T04:36:58;37;34;
80413;PMS5003;69758;52.580;13.068;2023-10-19T04:39:23;41;38;
80413;PMS5003;69758;52.580;13.068;2023-10-19T04:41:49;39;38;
80413;PMS5003;69758;52.580;13.068;2023-10-19T04:44:14;34;33;
80413;PMS5003;69758;52.580;13.068;2023-10-19T04:46:40;39;37;
80413;PMS5003;69758;52.580;13.068;2023-10-19T04:49:05;40;38;
80413;PMS5003;69758;52.580;13.068;2023-10-19T04:51:31;34;33;
80413;PMS5003;69758;52.580;13.068;2023-10-19T04:53:56;34;32;
80413;PMS5003;69758;52.580;13.068;2023-10-19T04:56:22;38;36;
80413;PMS5003;69758;52.580;13.068;2023-10-19T04:58:47;32;31;
80413;PMS5003;69758;52.580;13.068;2023-10-19T05:01:12;31;31;
80413;PMS5003;69758;52.580;13.068;2023-10-19T05:03:38;38;38;
80413;PMS5003;69758;52.580;13.068;2023-10-19T05:06:03;33;32;
80413;PMS5003;69758;52.580;13.068;2023-10-19T05:08:29;38;37;
80413;PMS5003;69758;52.580;13.068;2023-10-19T05:10:54;37;34;
80413;PMS5003;69758;52.580;13.068;2023-10-19T05:13:20;38;36;
80413;PMS5003;69758;52.580;13.068;2023-10-19T05:15:45;40;35;
80413;PMS5003;69758;52.580;13.068;2023-10-19T05:18:10;44;42;
80413;PMS5003;69758;52.580;13.068;2023-10-19T05:20:35;37;32;
80413;PMS5003;69758;52.580;13.068;2023-10-19T05:23:01;40;33;
80413;PMS5003;69758;52.580;13.068;2023-10-19T05:25:26;34;30;
80413;PMS5003;69758;52.580;13.068;2023-10-19T05:27:51;39;34;
80413;PMS5003;69758;52.580;13.068;2023-10-19T05:30:17;35;32;
80413;PMS5003;69758;52.580;13.068;2023-10-19T05:32:42;40;38;
80413;PMS5003;69758;52.580;13.068;2023-10-19T05:35:08;46;42;
80413;PMS5003;69758;52.580;13.068;2023-10-19T05:37:33;45;44;
80413;PMS5003;69758;52.580;13.068;2023-10-19T05:39:59;44;42;
80413;PMS5003;69758;52.580;13.068;2023-10-19T05:42:24;46;45;
80413;PMS5003;69758;52.580;13.068;2023-10-19T05:44:50;39;37;
80413;PMS5003;69758;52.580;13.068;2023-10-19T05:47:15;36;35;
80413;PMS5003;69758;52.580;13.068;2023-10-19T05:49:41;42;40;
80413;PMS5003;69758;52.580;13.068;2023-10-19T05:52:07;40;39;
80413;PMS5003;69758;52.580;13.068;2023-10-19T05:54:32;45;44;
80413;PMS5003;69758;52.580;13.068;2023-10-19T05:56:57;36;36;
80413;PMS5003;69758;52.580;13.068;2023-10-19T05:59:23;54;47;
80413;PMS5003;69758;52.580;13.068;2023-10-19T06:01:48;39;38;
80413;PMS5003;69758;52.580;13.068;2023-10-19T06:04:13;48;45;
80413;PMS5003;69758;52.580;13.068;2023-10-19T06:06:38;40;39;
80413;PMS5003;69758;52.580;13.068;2023-10-19T06:09:04;51;45;
80413;PMS5003;69758;52.580;13.068;2023-10-19T06:11:29;42;39;
80413;PMS5003;69758;52.580;13.068;2023-10-19T06:13:54;45;42;
80413;PMS5003;69758;52.580;13.068;2023-10-19T06:16:20;43;39;
80413;PMS5003;69758;52.580;13.068;2023-10-19T06:18:45;37;36;
80413;PMS5003;69758;52.580;13.068;2023-10-19T06:21:11;48;44;
80413;PMS5003;69758;52.580;13.068;2023-10-19T06:23:36;40;38;
80413;PMS5003;69758;52.580;13.068;2023-10-19T06:28:26;48;46;
80413;PMS5003;69758;52.580;13.068;2023-10-19T06:30:52;46;44;
80413;PMS5003;69758;52.580;13.068;2023-10-19T06:33:17;49;42;
80413;PMS5003;69758;52.580;13.068;2023-10-19T06:35:43;43;39;
80413;PMS5003;69758;52.580;13.068;2023-10-19T06:38:08;53;50;
80413;PMS5003;69758;52.580;13.068;2023-10-19T06:40:34;52;47;
80413;PMS5003;69758;52.580;13.068;2023-10-19T06:43:00;46;44;
80413;PMS5003;69758;52.580;13.068;2023-10-19T06:45:25;50;43;
80413;PMS5003;69758;52.580;13.068;2023-10-19T06:47:51;46;42;
80413;PMS5003;69758;52.580;13.068;2023-10-19T06:50:16;49;45;
80413;PMS5003;69758;52.580;13.068;2023-10-19T06:52:42;50;46;
80413;PMS5003;69758;52.580;13.068;2023-10-19T06:55:07;58;50;
80413;PMS5003;69758;52.580;13.068;2023-10-19T06:57:37;48;47;
80413;PMS5003;69758;52.580;13.068;2023-10-19T06:59:57;49;48;
80413;PMS5003;69758;52.580;13.068;2023-10-19T07:02:22;50;47;
80413;PMS5003;69758;52.580;13.068;2023-10-19T07:04:47;48;45;
80413;PMS5003;69758;52.580;13.068;2023-10-19T07:07:13;44;41;
80413;PMS5003;69758;52.580;13.068;2023-10-19T07:09:38;49;46;
80413;PMS5003;69758;52.580;13.068;2023-10-19T07:12:04;58;54;
80413;PMS5003;69758;52.580;13.068;2023-10-19T07:14:32;45;43;
80413;PMS5003;69758;52.580;13.068;2023-10-19T07:16:54;54;51;
80413;PMS5003;69758;52.580;13.068;2023-10-19T07:19:20;54;49;
80413;PMS5003;69758;52.580;13.068;2023-10-19T07:21:45;56;50;
80413;PMS5003;69758;52.580;13.068;2023-10-19T07:24:11;43;40;
80413;PMS5003;69758;52.580;13.068;2023-10-19T07:26:36;48;45;
80413;PMS5003;69758;52.580;13.068;2023-10-19T07:29:02;53;51;
80413;PMS5003;69758;52.580;13.068;2023-10-19T07:31:27;49;46;
80413;PMS5003;69758;52.580;13.068;2023-10-19T07:33:53;56;53;
80413;PMS5003;69758;52.580;13.068;2023-10-19T07:36:18;44;41;
80413;PMS5003;69758;52.580;13.068;2023-10-19T07:38:43;52;50;
80413;PMS5003;69758;52.580;13.068;2023-10-19T07:41:08;53;51;
80413;PMS5003;69758;52.580;13.068;2023-10-19T07:43:33;51;45;
80413;PMS5003;69758;52.580;13.068;2023-10-19T07:45:59;44;41;
80413;PMS5003;69758;52.580;13.068;2023-10-19T07:48:25;52;46;
80413;PMS5003;69758;52.580;13.068;2023-10-19T07:50:50;46;44;
80413;PMS5003;69758;52.580;13.068;2023-10-19T07:53:15;48;46;
80413;PMS5003;69758;52.580;13.068;2023-10-19T07:55:41;53;48;
80413;PMS5003;69758;52.580;13.068;2023-10-19T07:58:07;48;46;
80413;PMS5003;69758;52.580;13.068;2023-10-19T08:00:32;51;51;
80413;PMS5003;69758;52.580;13.068;2023-10-19T08:02:57;44;39;
80413;PMS5003;69758;52.580;13.068;2023-10-19T08:05:23;46;44;
80413;PMS5003;69758;52.580;13.068;2023-10-19T08:07:48;44;42;
80413;PMS5003;69758;52.580;13.068;2023-10-19T08:10:14;54;51;
80413;PMS5003;69758;52.580;13.068;2023-10-19T08:12:39;52;51;
80413;PMS5003;69758;52.580;13.068;2023-10-19T08:15:04;46;39;
80413;PMS5003;69758;52.580;13.068;2023-10-19T08:17:29;48;47;
80413;PMS5003;69758;52.580;13.068;2023-10-19T08:19:55;50;44;
80413;PMS5003;69758;52.580;13.068;2023-10-19T08:22:21;49;46;
80413;PMS5003;69758;52.580;13.068;2023-10-19T08:24:45;46;44;
80413;PMS5003;69758;52.580;13.068;2023-10-19T08:27:10;44;43;
80413;PMS5003;69758;52.580;13.068;2023-10-19T08:29:36;60;58;
80413;PMS5003;69758;52.580;13.068;2023-10-19T08:32:01;48;46;
80413;PMS5003;69758;52.580;13.068;2023-10-19T08:34:27;45;42;
80413;PMS5003;69758;52.580;13.068;2023-10-19T08:36:52;41;40;
80413;PMS5003;69758;52.580;13.068;2023-10-19T08:39:18;46;45;
80413;PMS5003;69758;52.580;13.068;2023-10-19T08:41:43;46;42;
80413;PMS5003;69758;52.580;13.068;2023-10-19T08:44:09;42;40;
80413;PMS5003;69758;52.580;13.068;2023-10-19T08:46:34;42;41;
80413;PMS5003;69758;52.580;13.068;2023-10-19T08:49:00;49;47;
80413;PMS5003;69758;52.580;13.068;2023-10-19T08:51:25;45;44;
80413;PMS5003;69758;52.580;13.068;2023-10-19T08:53:51;43;40;
80413;PMS5003;69758;52.580;13.068;2023-10-19T08:56:16;48;43;
80413;PMS5003;69758;52.580;13.068;2023-10-19T08:58:42;50;48;
80413;PMS5003;69758;52.580;13.068;2023-10-19T09:01:08;43;42;
80413;PMS5003;69758;52.580;13.068;2023-10-19T09:03:33;43;42;
80413;PMS5003;69758;52.580;13.068;2023-10-19T09:06:00;51;49;
80413;PMS5003;69758;52.580;13.068;2023-10-19T09:08:24;51;49;
80413;PMS5003;69758;52.580;13.068;2023-10-19T09:10:50;49;47;
80413;PMS5003;69758;52.580;13.068;2023-10-19T09:13:16;49;44;
80413;PMS5003;69758;52.580;13.068;2023-10-19T09:15:41;46;44;
80413;PMS5003;69758;52.580;13.068;2023-10-19T09:18:12;37;35;
80413;PMS5003;69758;52.580;13.068;2023-10-19T09:20:32;41;39;
80413;PMS5003;69758;52.580;13.068;2023-10-19T09:22:57;54;48;
80413;PMS5003;69758;52.580;13.068;2023-10-19T09:25:22;37;37;
80413;PMS5003;69758;52.580;13.068;2023-10-19T09:27:48;51;46;
80413;PMS5003;69758;52.580;13.068;2023-10-19T09:30:13;43;42;
80413;PMS5003;69758;52.580;13.068;2023-10-19T09:32:39;43;40;
80413;PMS5003;69758;52.580;13.068;2023-10-19T09:35:04;45;42;
80413;PMS5003;69758;52.580;13.068;2023-10-19T09:37:29;41;40;
80413;PMS5003;69758;52.580;13.068;2023-10-19T09:39:54;45;40;
80413;PMS5003;69758;52.580;13.068;2023-10-19T09:42:20;44;41;
80413;PMS5003;69758;52.580;13.068;2023-10-19T09:44:47;49;46;
80413;PMS5003;69758;52.580;13.068;2023-10-19T09:47:11;41;41;
80413;PMS5003;69758;52.580;13.068;2023-10-19T09:49:36;51;47;
80413;PMS5003;69758;52.580;13.068;2023-10-19T09:52:02;44;42;
80413;PMS5003;69758;52.580;13.068;2023-10-19T09:54:27;57;53;
80413;PMS5003;69758;52.580;13.068;2023-10-19T09:56:58;47;46;
80413;PMS5003;69758;52.580;13.068;2023-10-19T09:59:21;52;46;
80413;PMS5003;69758;52.580;13.068;2023-10-19T10:04:09;43;41;
80413;PMS5003;69758;52.580;13.068;2023-10-19T10:09:00;46;44;
80413;PMS5003;69758;52.580;13.068;2023-10-19T10:11:26;45;42;
80413;PMS5003;69758;52.580;13.068;2023-10-19T10:13:50;48;46;
80413;PMS5003;69758;52.580;13.068;2023-10-19T10:16:16;52;50;
80413;PMS5003;69758;52.580;13.068;2023-10-19T10:18:41;43;37;
80413;PMS5003;69758;52.580;13.068;2023-10-19T10:21:06;48;43;
80413;PMS5003;69758;52.580;13.068;2023-10-19T10:23:32;41;38;
80413;PMS5003;69758;52.580;13.068;2023-10-19T10:25:57;42;39;
80413;PMS5003;69758;52.580;13.068;2023-10-19T10:28:21;44;40;
80413;PMS5003;69758;52.580;13.068;2023-10-19T10:33:13;49;45;
80413;PMS5003;69758;52.580;13.068;2023-10-19T10:38:04;51;49;
80413;PMS5003;69758;52.580;13.068;2023-10-19T10:40:29;46;42;
80413;PMS5003;69758;52.580;13.068;2023-10-19T10:45:19;58;52;
80413;PMS5003;69758;52.580;13.068;2023-10-19T10:47:44;47;45;
80413;PMS5003;69758;52.580;13.068;2023-10-19T10:50:10;46;43;
80413;PMS5003;69758;52.580;13.068;2023-10-19T10:52:35;43;38;
80413;PMS5003;69758;52.580;13.068;2023-10-19T10:57:30;47;45;
80413;PMS5003;69758;52.580;13.068;2023-10-19T11:00:00;37;36;
80413;PMS5003;69758;52.580;13.068;2023-10-19T11:02:17;41;38;
80413;PMS5003;69758;52.580;13.068;2023-10-19T11:04:43;43;39;
80413;PMS5003;69758;52.580;13.068;2023-10-19T11:07:08;38;38;
80413;PMS5003;69758;52.580;13.068;2023-10-19T11:11:58;45;42;
80413;PMS5003;69758;52.580;13.068;2023-10-19T11:14:24;48;45;
80413;PMS5003;69758;52.580;13.068;2023-10-19T11:16:49;34;34;
80413;PMS5003;69758;52.580;13.068;2023-10-19T11:19:14;44;40;
80413;PMS5003;69758;52.580;13.068;2023-10-19T11:24:05;49;46;
80413;PMS5003;69758;52.580;13.068;2023-10-19T11:26:31;53;49;
80413;PMS5003;69758;52.580;13.068;2023-10-19T11:28:56;51;49;
80413;PMS5003;69758;52.580;13.068;2023-10-19T11:31:22;45;44;
80413;PMS5003;69758;52.580;13.068;2023-10-19T11:33:48;45;44;
80413;PMS5003;69758;52.580;13.068;2023-10-19T11:36:13;54;51;
80413;PMS5003;69758;52.580;13.068;2023-10-19T11:38:39;50;45;
80413;PMS5003;69758;52.580;13.068;2023-10-19T11:41:04;49;48;
80413;PMS5003;69758;52.580;13.068;2023-10-19T11:43:30;49;47;
80413;PMS5003;69758;52.580;13.068;2023-10-19T11:45:55;39;39;
80413;PMS5003;69758;52.580;13.068;2023-10-19T11:48:21;46;45;
80413;PMS5003;69758;52.580;13.068;2023-10-19T11:50:46;47;44;
80413;PMS5003;69758;52.580;13.068;2023-10-19T11:53:12;42;40;
80413;PMS5003;69758;52.580;13.068;2023-10-19T11:55:38;46;46;
80413;PMS5003;69758;52.580;13.068;2023-10-19T11:58:03;46;43;
80413;PMS5003;69758;52.580;13.068;2023-10-19T12:00:29;52;46;
80413;PMS5003;69758;52.580;13.068;2023-10-19T12:02:54;47;45;
80413;PMS5003;69758;52.580;13.068;2023-10-19T12:05:20;51;49;
80413;PMS5003;69758;52.580;13.068;2023-10-19T12:07:45;52;51;
80413;PMS5003;69758;52.580;13.068;2023-10-19T12:10:11;46;42;
80413;PMS5003;69758;52.580;13.068;2023-10-19T12:12:36;46;43;
80413;PMS5003;69758;52.580;13.068;2023-10-19T12:15:01;49;47;
80413;PMS5003;69758;52.580;13.068;2023-10-19T12:17:26;46;44;
80413;PMS5003;69758;52.580;13.068;2023-10-19T12:19:51;42;41;
80413;PMS5003;69758;52.580;13.068;2023-10-19T12:22:17;46;45;
80413;PMS5003;69758;52.580;13.068;2023-10-19T12:24:42;51;48;
80413;PMS5003;69758;52.580;13.068;2023-10-19T12:27:07;51;47;
80413;PMS5003;69758;52.580;13.068;2023-10-19T12:29:33;52;46;
80413;PMS5003;69758;52.580;13.068;2023-10-19T12:31:58;53;50;
80413;PMS5003;69758;52.580;13.068;2023-10-19T12:34:23;52;45;
80413;PMS5003;69758;52.580;13.068;2023-10-19T12:36:48;46;42;
80413;PMS5003;69758;52.580;13.068;2023-10-19T12:39:14;45;44;
80413;PMS5003;69758;52.580;13.068;2023-10-19T12:41:39;58;55;
80413;PMS5003;69758;52.580;13.068;2023-10-19T12:44:04;53;47;
80413;PMS5003;69758;52.580;13.068;2023-10-19T12:46:30;47;45;
80413;PMS5003;69758;52.580;13.068;2023-10-19T12:48:56;48;46;
80413;PMS5003;69758;52.580;13.068;2023-10-19T12:51:22;57;55;
80413;PMS5003;69758;52.580;13.068;2023-10-19T12:53:47;50;43;
80413;PMS5003;69758;52.580;13.068;2023-10-19T12:56:12;46;45;
80413;PMS5003;69758;52.580;13.068;2023-10-19T12:58:38;45;45;
80413;PMS5003;69758;52.580;13.068;2023-10-19T13:01:02;50;47;
80413;PMS5003;69758;52.580;13.068;2023-10-19T13:03:28;48;46;
80413;PMS5003;69758;52.580;13.068;2023-10-19T13:05:53;46;44;
80413;PMS5003;69758;52.580;13.068;2023-10-19T13:08:18;55;49;
80413;PMS5003;69758;52.580;13.068;2023-10-19T13:10:46;46;45;
80413;PMS5003;69758;52.580;13.068;2023-10-19T13:13:10;53;50;
80413;PMS5003;69758;52.580;13.068;2023-10-19T13:15:35;50;47;
80413;PMS5003;69758;52.580;13.068;2023-10-19T13:18:00;58;52;
80413;PMS5003;69758;52.580;13.068;2023-10-19T13:20:25;46;46;
80413;PMS5003;69758;52.580;13.068;2023-10-19T13:22:51;49;45;
80413;PMS5003;69758;52.580;13.068;2023-10-19T13:25:16;50;50;
80413;PMS5003;69758;52.580;13.068;2023-10-19T13:27:43;50;45;
80413;PMS5003;69758;52.580;13.068;2023-10-19T13:30:08;54;53;
80413;PMS5003;69758;52.580;13.068;2023-10-19T13:32:34;56;54;
80413;PMS5003;69758;52.580;13.068;2023-10-19T13:34:59;50;46;
80413;PMS5003;69758;52.580;13.068;2023-10-19T13:37:24;64;59;
80413;PMS5003;69758;52.580;13.068;2023-10-19T13:39:49;52;49;
80413;PMS5003;69758;52.580;13.068;2023-10-19T13:42:15;51;49;
80413;PMS5003;69758;52.580;13.068;2023-10-19T13:44:41;56;54;
80413;PMS5003;69758;52.580;13.068;2023-10-19T13:47:07;47;45;
80413;PMS5003;69758;52.580;13.068;2023-10-19T13:49:32;50;47;
80413;PMS5003;69758;52.580;13.068;2023-10-19T13:51:58;46;45;
80413;PMS5003;69758;52.580;13.068;2023-10-19T13:54:24;50;46;
80413;PMS5003;69758;52.580;13.068;2023-10-19T13:56:49;52;51;
80413;PMS5003;69758;52.580;13.068;2023-10-19T13:59:14;49;45;
80413;PMS5003;69758;52.580;13.068;2023-10-19T14:01:39;47;43;
80413;PMS5003;69758;52.580;13.068;2023-10-19T14:04:05;50;47;
80413;PMS5003;69758;52.580;13.068;2023-10-19T14:06:31;65;57;
80413;PMS5003;69758;52.580;13.068;2023-10-19T14:08:56;48;45;
80413;PMS5003;69758;52.580;13.068;2023-10-19T14:11:21;53;49;
80413;PMS5003;69758;52.580;13.068;2023-10-19T14:13:47;54;51;
80413;PMS5003;69758;52.580;13.068;2023-10-19T14:16:13;52;47;
80413;PMS5003;69758;52.580;13.068;2023-10-19T14:18:38;55;53;
80413;PMS5003;69758;52.580;13.068;2023-10-19T14:23:29;49;47;
80413;PMS5003;69758;52.580;13.068;2023-10-19T14:25:54;51;51;
80413;PMS5003;69758;52.580;13.068;2023-10-19T14:28:20;57;53;
80413;PMS5003;69758;52.580;13.068;2023-10-19T14:30:45;55;52;
80413;PMS5003;69758;52.580;13.068;2023-10-19T14:33:10;54;50;
80413;PMS5003;69758;52.580;13.068;2023-10-19T14:35:36;55;50;
80413;PMS5003;69758;52.580;13.068;2023-10-19T14:38:01;56;52;
80413;PMS5003;69758;52.580;13.068;2023-10-19T14:40:27;64;62;
80413;PMS5003;69758;52.580;13.068;2023-10-19T14:42:52;56;54;
80413;PMS5003;69758;52.580;13.068;2023-10-19T14:45:18;47;46;
80413;PMS5003;69758;52.580;13.068;2023-10-19T14:47:46;45;44;
80413;PMS5003;69758;52.580;13.068;2023-10-19T14:50:10;57;54;
80413;PMS5003;69758;52.580;13.068;2023-10-19T14:52:34;56;53;
80413;PMS5003;69758;52.580;13.068;2023-10-19T14:54:59;87;80;
80413;PMS5003;69758;52.580;13.068;2023-10-19T14:57:24;68;61;
80413;PMS5003;69758;52.580;13.068;2023-10-19T14:59:49;57;53;
80413;PMS5003;69758;52.580;13.068;2023-10-19T15:02:15;46;44;
80413;PMS5003;69758;52.580;13.068;2023-10-19T15:04:40;56;53;
80413;PMS5003;69758;52.580;13.068;2023-10-19T15:07:05;50;45;
80413;PMS5003;69758;52.580;13.068;2023-10-19T15:09:31;52;52;
80413;PMS5003;69758;52.580;13.068;2023-10-19T15:11:56;49;45;
80413;PMS5003;69758;52.580;13.068;2023-10-19T15:14:22;45;43;
80413;PMS5003;69758;52.580;13.068;2023-10-19T15:16:48;57;53;
80413;PMS5003;69758;52.580;13.068;2023-10-19T15:19:13;53;51;
80413;PMS5003;69758;52.580;13.068;2023-10-19T15:21:38;60;59;
80413;PMS5003;69758;52.580;13.068;2023-10-19T15:24:05;51;47;
80413;PMS5003;69758;52.580;13.068;2023-10-19T15:26:30;58;54;
80413;PMS5003;69758;52.580;13.068;2023-10-19T15:28:55;57;56;
80413;PMS5003;69758;52.580;13.068;2023-10-19T15:31:21;55;52;
80413;PMS5003;69758;52.580;13.068;2023-10-19T15:33:46;60;54;
80413;PMS5003;69758;52.580;13.068;2023-10-19T15:36:11;50;49;
80413;PMS5003;69758;52.580;13.068;2023-10-19T15:38:37;56;53;
80413;PMS5003;69758;52.580;13.068;2023-10-19T15:41:02;50;46;
80413;PMS5003;69758;52.580;13.068;2023-10-19T15:43:27;54;54;
80413;PMS5003;69758;52.580;13.068;2023-10-19T15:45:56;56;52;
80413;PMS5003;69758;52.580;13.068;2023-10-19T15:50:44;56;52;
80413;PMS5003;69758;52.580;13.068;2023-10-19T15:53:10;70;62;
80413;PMS5003;69758;52.580;13.068;2023-10-19T15:55:35;46;45;
80413;PMS5003;69758;52.580;13.068;2023-10-19T15:58:00;46;46;
80413;PMS5003;69758;52.580;13.068;2023-10-19T16:00:25;56;52;
80413;PMS5003;69758;52.580;13.068;2023-10-19T16:02:51;48;46;
80413;PMS5003;69758;52.580;13.068;2023-10-19T16:05:17;46;45;
80413;PMS5003;69758;52.580;13.068;2023-10-19T16:07:41;62;59;
80413;PMS5003;69758;52.580;13.068;2023-10-19T16:10:07;58;54;
80413;PMS5003;69758;52.580;13.068;2023-10-19T16:12:32;54;48;
80413;PMS5003;69758;52.580;13.068;2023-10-19T16:14:57;58;53;